Time;durP1;ratioP1;P1;durP2;ratioP2;P2;SDS_P1;SDS_P2;PMS_P1;PMS_P2;Temp;Humidity;BMP_temperature;BMP_pressure;BME280_temperature;BME280_humidity;BME280_pressure;Samples;Min_cycle;Max_cycle;Signal;HPM_P1;HPM_P2
2023/06/27 00:01:58;;;;;;;4.70;1.30;;;;;;;17.91;55.21;97607.25;4921751;29;20036;-59
2023/06/27 00:04:24;;;;;;;6.53;1.70;;;;;;;17.92;55.13;97605.34;4918062;29;20127;-59
2023/06/27 00:06:50;;;;;;;8.90;2.83;;;;;;;17.98;55.65;97611.59;4917835;29;20048;-58
2023/06/27 00:09:17;;;;;;;4.50;1.60;;;;;;;17.83;55.44;97607.91;4915680;29;20052;-59
2023/06/27 00:11:44;;;;;;;6.38;1.55;;;;;;;17.91;55.57;97609.22;4924016;29;20485;-58
2023/06/27 00:14:13;;;;;;;4.35;1.90;;;;;;;17.80;56.33;97612.06;4917064;29;20066;-58
2023/06/27 00:16:40;;;;;;;5.10;1.65;;;;;;;17.82;56.04;97611.78;4918073;29;20507;-58
2023/06/27 00:19:07;;;;;;;4.55;1.60;;;;;;;17.57;57.04;97612.91;4919161;28;20047;-58
2023/06/27 00:21:35;;;;;;;5.25;1.75;;;;;;;17.45;57.71;97618.78;4915282;29;20130;-59
2023/06/27 00:24:03;;;;;;;4.13;1.63;;;;;;;17.36;58.61;97618.63;4918659;29;20063;-58
2023/06/27 00:26:30;;;;;;;4.22;1.45;;;;;;;17.28;58.63;97629.09;4915666;29;20040;-57
2023/06/27 00:28:57;;;;;;;8.25;1.20;;;;;;;17.15;59.29;97625.09;4920618;29;20138;-59
2023/06/27 00:31:25;;;;;;;5.18;1.40;;;;;;;17.10;59.46;97624.38;4916774;29;20263;-58
2023/06/27 00:33:52;;;;;;;3.83;1.50;;;;;;;17.09;59.33;97626.28;4917428;29;20056;-58
2023/06/27 00:36:18;;;;;;;5.82;2.53;;;;;;;17.07;59.53;97625.75;4915810;29;20047;-59
2023/06/27 00:38:45;;;;;;;6.15;1.45;;;;;;;17.01;60.23;97621.41;4915904;29;20297;-59
2023/06/27 00:41:12;;;;;;;4.45;1.30;;;;;;;16.95;60.89;97620.63;4940574;28;20264;-59
2023/06/27 00:43:40;;;;;;;4.47;2.05;;;;;;;17.03;60.46;97622.72;4917024;29;20067;-59
2023/06/27 00:46:08;;;;;;;2.63;1.25;;;;;;;17.05;60.46;97622.47;4914534;29;20048;-58
2023/06/27 00:48:36;;;;;;;5.97;1.33;;;;;;;17.15;60.46;97633.31;4918219;29;20610;-59
2023/06/27 00:51:03;;;;;;;8.95;2.88;;;;;;;17.16;59.83;97628.66;4913519;29;20530;-58
2023/06/27 00:53:30;;;;;;;4.05;1.58;;;;;;;17.18;59.33;97629.22;4914435;29;20555;-59
2023/06/27 00:55:57;;;;;;;4.35;1.60;;;;;;;17.24;59.34;97633.50;4918191;29;20051;-58
2023/06/27 00:58:25;;;;;;;10.48;1.83;;;;;;;17.15;60.04;97638.78;4915109;29;20071;-60
2023/06/27 01:00:51;;;;;;;8.45;2.90;;;;;;;17.13;59.73;97635.53;4915536;29;20482;-58
2023/06/27 01:03:18;;;;;;;4.95;1.77;;;;;;;17.15;60.31;97636.03;4920017;29;20051;-59
2023/06/27 01:05:45;;;;;;;6.93;1.58;;;;;;;17.16;59.12;97636.88;4921865;29;20040;-58
2023/06/27 01:08:23;;;;;;;12.52;1.95;;;;;;;17.13;58.95;97631.97;4915207;29;20058;-59
2023/06/27 01:11:03;;;;;;;8.55;1.70;;;;;;;17.19;58.55;97632.75;4929380;29;20523;-58
2023/06/27 01:13:36;;;;;;;12.98;1.88;;;;;;;17.33;57.92;97646.56;4920286;29;20452;-58
2023/06/27 01:16:05;;;;;;;7.68;1.88;;;;;;;17.39;57.80;97637.19;4914993;29;20050;-58
2023/06/27 01:18:32;;;;;;;5.00;1.38;;;;;;;17.37;58.04;97639.41;4922674;29;20076;-58
2023/06/27 01:21:00;;;;;;;8.40;1.63;;;;;;;17.32;58.79;97639.47;4940350;28;20071;-58
2023/06/27 01:23:34;;;;;;;6.32;1.80;;;;;;;17.42;57.91;97642.06;4925531;29;20043;-56
2023/06/27 01:26:05;;;;;;;8.05;1.30;;;;;;;17.49;58.00;97648.03;4926347;29;20074;-58
2023/06/27 01:28:33;;;;;;;7.45;1.50;;;;;;;17.44;57.70;97642.63;4927836;29;20090;-57
2023/06/27 01:31:01;;;;;;;6.78;1.60;;;;;;;17.42;57.65;97650.28;4925945;29;20503;-58
2023/06/27 01:33:34;;;;;;;11.05;1.73;;;;;;;17.20;58.25;97646.13;4927258;29;20043;-56
2023/06/27 01:36:12;;;;;;;4.85;1.60;;;;;;;17.33;57.96;97646.56;4925463;29;20047;-58
2023/06/27 01:38:59;;;;;;;10.55;1.63;;;;;;;17.16;58.73;97643.16;4925602;29;20063;-58
2023/06/27 01:41:28;;;;;;;6.15;1.65;;;;;;;17.17;58.84;97641.22;4922194;29;20047;-58
2023/06/27 01:44:01;;;;;;;8.38;1.55;;;;;;;17.22;58.49;97648.59;4926210;29;20047;-58
2023/06/27 01:46:28;;;;;;;7.57;1.63;;;;;;;17.12;59.03;97649.50;4921430;29;20058;-58
2023/06/27 01:48:55;;;;;;;6.60;1.67;;;;;;;17.12;60.14;97641.28;4933743;28;20147;-59
2023/06/27 01:51:22;;;;;;;10.15;1.50;;;;;;;17.10;60.09;97644.31;4923739;29;20044;-59
2023/06/27 01:53:49;;;;;;;8.90;1.95;;;;;;;17.05;60.58;97638.06;4914659;29;20075;-59
2023/06/27 01:56:15;;;;;;;8.95;2.22;;;;;;;16.92;61.52;97632.16;4916267;29;20486;-58
2023/06/27 01:58:45;;;;;;;3.90;1.38;;;;;;;16.73;61.77;97641.03;4919513;29;20051;-58
2023/06/27 02:01:11;;;;;;;5.65;1.40;;;;;;;16.63;62.42;97635.66;4924689;29;20058;-58
2023/06/27 02:03:38;;;;;;;7.13;1.70;;;;;;;16.64;62.01;97650.97;4926031;29;20043;-59
2023/06/27 02:06:05;;;;;;;5.53;1.35;;;;;;;16.48;62.80;97653.78;4931403;28;20052;-59
2023/06/27 02:08:31;;;;;;;3.88;1.50;;;;;;;16.45;63.15;97657.13;4925211;29;20083;-58
2023/06/27 02:10:58;;;;;;;3.20;1.50;;;;;;;16.39;63.11;97647.31;4926058;29;20055;-58
2023/06/27 02:13:25;;;;;;;5.88;2.25;;;;;;;16.42;63.14;97651.38;4922554;29;20543;-58
2023/06/27 02:15:52;;;;;;;4.57;1.67;;;;;;;16.01;65.96;97642.34;4920396;29;20444;-58
2023/06/27 02:18:20;;;;;;;3.97;1.55;;;;;;;15.94;67.12;97642.66;4915547;29;20056;-58
2023/06/27 02:20:46;;;;;;;5.45;1.42;;;;;;;15.99;64.69;97642.63;4917365;29;20052;-58
2023/06/27 02:23:13;;;;;;;4.97;1.52;;;;;;;15.95;64.53;97636.09;4923199;29;20629;-57
2023/06/27 02:25:43;;;;;;;4.68;1.30;;;;;;;15.98;64.63;97631.97;4918877;29;20056;-58
2023/06/27 02:28:09;;;;;;;5.72;1.50;;;;;;;16.03;64.97;97625.69;4915212;29;20039;-59
2023/06/27 02:30:37;;;;;;;4.72;1.60;;;;;;;16.12;64.78;97633.00;4917218;29;20515;-58
2023/06/27 02:33:04;;;;;;;4.43;1.55;;;;;;;15.97;65.49;97624.88;4914342;29;20040;-55
2023/06/27 02:35:30;;;;;;;4.50;1.38;;;;;;;15.88;65.21;97632.00;4916727;29;20049;-58
2023/06/27 02:37:57;;;;;;;4.15;1.33;;;;;;;15.95;64.96;97629.78;4918405;29;20270;-56
2023/06/27 02:40:23;;;;;;;3.63;1.40;;;;;;;15.95;64.93;97627.91;4917770;29;20059;-58
2023/06/27 02:42:50;;;;;;;8.55;2.00;;;;;;;16.02;64.38;97626.75;4916516;29;20052;-58
2023/06/27 02:45:17;;;;;;;3.20;1.30;;;;;;;16.02;64.68;97634.94;4919448;29;20044;-58
2023/06/27 02:47:43;;;;;;;4.57;2.30;;;;;;;15.92;65.25;97625.69;4915677;29;20132;-59
2023/06/27 02:50:10;;;;;;;8.38;2.50;;;;;;;15.95;64.86;97630.63;4923624;29;20039;-58
2023/06/27 02:52:36;;;;;;;3.53;1.23;;;;;;;15.97;64.13;97628.44;4914326;29;20529;-59
2023/06/27 02:55:03;;;;;;;4.10;1.48;;;;;;;16.04;64.00;97627.31;4917603;29;20048;-58
2023/06/27 02:57:30;;;;;;;3.55;1.30;;;;;;;16.02;63.90;97624.03;4918764;29;20240;-58
2023/06/27 02:59:58;;;;;;;6.68;2.47;;;;;;;15.99;64.63;97623.50;4919222;29;20048;-58
2023/06/27 03:02:25;;;;;;;6.05;1.52;;;;;;;15.96;64.54;97634.19;4918403;29;20091;-59
2023/06/27 03:04:51;;;;;;;6.78;1.50;;;;;;;15.78;65.76;97638.31;4926663;29;20149;-58
2023/06/27 03:07:19;;;;;;;9.32;1.90;;;;;;;15.70;66.22;97635.06;4919412;29;20062;-58
2023/06/27 03:09:46;;;;;;;5.68;1.35;;;;;;;15.50;66.98;97637.88;4925307;29;20039;-59
2023/06/27 03:12:15;;;;;;;7.72;1.95;;;;;;;15.36;68.06;97632.19;4915532;29;20128;-58
2023/06/27 03:14:42;;;;;;;7.40;1.52;;;;;;;15.51;67.29;97637.59;4926612;28;20054;-58
2023/06/27 03:17:09;;;;;;;5.22;1.55;;;;;;;15.65;65.95;97639.72;4921957;29;20044;-58
2023/06/27 03:19:36;;;;;;;5.53;1.52;;;;;;;15.77;64.98;97629.31;4921663;29;20040;-58
2023/06/27 03:22:12;;;;;;;4.53;1.40;;;;;;;15.54;68.96;97637.03;4935302;28;20119;-58
2023/06/27 03:24:39;;;;;;;3.50;1.60;;;;;;;14.99;70.99;97634.97;4927980;29;20043;-58
2023/06/27 03:27:05;;;;;;;4.75;1.38;;;;;;;15.05;70.11;97630.34;4917120;29;20051;-58
2023/06/27 03:29:36;;;;;;;5.45;1.55;;;;;;;14.81;70.73;97630.91;4924573;29;20052;-58
2023/06/27 03:32:03;;;;;;;7.18;2.13;;;;;;;14.89;70.74;97643.19;4917605;29;20055;-58
2023/06/27 03:34:30;;;;;;;7.63;1.60;;;;;;;15.04;69.35;97643.16;4926302;29;20040;-57
2023/06/27 03:36:57;;;;;;;3.88;1.20;;;;;;;15.02;69.56;97642.63;4934045;28;20074;-55
2023/06/27 03:39:24;;;;;;;4.30;1.40;;;;;;;15.01;70.15;97642.88;4922018;29;20043;-56
2023/06/27 03:41:51;;;;;;;6.22;1.77;;;;;;;15.12;69.31;97649.16;4930615;29;20606;-57
2023/06/27 03:44:19;;;;;;;4.50;1.55;;;;;;;14.83;71.39;97651.34;4924979;29;20134;-58
2023/06/27 03:46:46;;;;;;;5.30;1.65;;;;;;;14.63;73.21;97651.31;4919767;29;20073;-58
2023/06/27 03:49:12;;;;;;;4.32;1.30;;;;;;;14.63;73.12;97641.22;4935939;28;20052;-59
2023/06/27 03:51:40;;;;;;;3.97;1.60;;;;;;;14.57;73.83;97645.84;4919905;29;20055;-58
2023/06/27 03:54:06;;;;;;;6.70;2.30;;;;;;;14.59;73.49;97642.84;4927301;29;20534;-58
2023/06/27 03:56:33;;;;;;;7.88;1.77;;;;;;;14.78;73.92;97645.09;4920131;29;20048;-59
2023/06/27 03:59:00;;;;;;;5.10;1.58;;;;;;;15.00;71.76;97647.50;4937274;28;20048;-59
2023/06/27 04:01:27;;;;;;;5.03;1.45;;;;;;;15.18;70.73;97650.75;4927919;29;20113;-58
2023/06/27 04:03:54;;;;;;;3.35;1.60;;;;;;;15.28;70.12;97641.75;4929745;29;20071;-58
2023/06/27 04:06:20;;;;;;;4.55;1.70;;;;;;;15.38;70.10;97641.75;4928825;29;20123;-59
2023/06/27 04:08:48;;;;;;;6.22;2.55;;;;;;;15.16;71.06;97637.41;4919714;29;20051;-58
2023/06/27 04:11:15;;;;;;;5.32;1.48;;;;;;;15.24;70.89;97641.50;4933319;28;20086;-58
2023/06/27 04:13:41;;;;;;;7.15;2.00;;;;;;;15.32;71.38;97654.56;4917900;29;20032;-58
2023/06/27 04:16:10;;;;;;;3.53;1.60;;;;;;;15.35;69.95;97655.94;4921353;29;20078;-58
2023/06/27 04:18:37;;;;;;;6.63;1.35;;;;;;;15.46;70.89;97654.81;4920342;29;20235;-58
2023/06/27 04:21:04;;;;;;;3.75;1.55;;;;;;;15.36;72.02;97643.91;4929516;29;20062;-57
2023/06/27 04:23:30;;;;;;;4.53;1.50;;;;;;;15.21;73.89;97634.69;4923068;29;20455;-64
2023/06/27 04:26:03;;;;;;;4.00;1.83;;;;;;;15.31;72.56;97641.19;4923774;29;20070;-63
2023/06/27 04:28:33;;;;;;;4.68;1.63;;;;;;;15.33;70.91;97653.47;4916848;29;20543;-64
2023/06/27 04:31:01;;;;;;;6.57;2.55;;;;;;;15.53;70.28;97661.88;4920583;29;21461;-63
2023/06/27 04:33:28;;;;;;;3.38;1.42;;;;;;;15.49;70.40;97658.91;4925116;29;20047;-64
2023/06/27 04:36:00;;;;;;;4.60;1.70;;;;;;;15.45;70.32;97653.16;4920262;29;20499;-64
2023/06/27 04:38:29;;;;;;;6.40;1.60;;;;;;;15.39;72.06;97651.56;4919043;29;20478;-64
2023/06/27 04:40:55;;;;;;;4.43;1.65;;;;;;;15.45;71.64;97658.63;4924267;29;20043;-64
2023/06/27 04:43:22;;;;;;;3.95;1.55;;;;;;;15.60;70.36;97663.22;4934464;28;20054;-64
2023/06/27 04:45:49;;;;;;;6.22;1.50;;;;;;;15.60;70.06;97655.03;4922867;29;20052;-64
2023/06/27 04:48:15;;;;;;;5.40;1.60;;;;;;;15.72;69.73;97667.56;4921050;29;20071;-64
2023/06/27 04:50:42;;;;;;;8.43;2.30;;;;;;;15.54;71.03;97666.22;4923090;29;20056;-64
2023/06/27 04:53:08;;;;;;;4.88;1.50;;;;;;;15.42;71.95;97669.28;4924821;29;20059;-64
2023/06/27 04:55:35;;;;;;;6.63;1.95;;;;;;;15.58;71.69;97670.88;4921103;29;20498;-64
2023/06/27 04:58:01;;;;;;;3.70;1.33;;;;;;;15.69;70.13;97674.38;4920689;29;20038;-63
2023/06/27 05:00:28;;;;;;;2.67;1.40;;;;;;;15.78;70.05;97665.63;4922893;29;20057;-64
2023/06/27 05:02:56;;;;;;;6.40;1.65;;;;;;;16.02;69.30;97660.34;4916507;29;20055;-63
2023/06/27 05:05:22;;;;;;;3.30;1.70;;;;;;;16.11;69.82;97669.59;4921045;29;20070;-63
2023/06/27 05:07:49;;;;;;;4.72;1.60;;;;;;;16.10;68.49;97664.41;4926970;29;20507;-63
2023/06/27 05:10:15;;;;;;;6.43;1.60;;;;;;;16.25;70.27;97664.34;4921089;29;20055;-63
2023/06/27 05:12:42;;;;;;;4.68;2.00;;;;;;;16.42;68.68;97662.31;4927721;29;20051;-64
2023/06/27 05:15:09;;;;;;;7.05;1.30;;;;;;;16.63;68.65;97668.47;4916864;29;20047;-64
2023/06/27 05:17:35;;;;;;;2.72;1.40;;;;;;;16.82;65.48;97667.78;4925902;29;20510;-64
2023/06/27 05:20:04;;;;;;;3.25;1.50;;;;;;;16.87;65.62;97660.34;4923080;29;20122;-63
2023/06/27 05:22:30;;;;;;;3.70;1.50;;;;;;;16.82;63.83;97660.41;4920325;29;20134;-64
2023/06/27 05:24:57;;;;;;;6.22;1.52;;;;;;;17.03;63.07;97660.22;4923187;29;20130;-64
2023/06/27 05:27:23;;;;;;;7.25;1.75;;;;;;;17.19;62.73;97663.66;4918100;29;20039;-64
2023/06/27 05:29:50;;;;;;;4.15;1.50;;;;;;;17.21;61.43;97663.38;4923959;29;20257;-64
2023/06/27 05:32:16;;;;;;;4.30;1.50;;;;;;;17.23;64.00;97661.16;4917291;29;20047;-64
2023/06/27 05:34:43;;;;;;;6.88;1.73;;;;;;;17.28;61.58;97661.09;4917725;29;20538;-64
2023/06/27 05:37:10;;;;;;;4.93;1.75;;;;;;;17.43;60.98;97665.59;4924840;29;20047;-64
2023/06/27 05:39:37;;;;;;;5.38;1.58;;;;;;;17.49;58.27;97667.19;4925718;29;20147;-64
2023/06/27 05:42:04;;;;;;;5.60;1.70;;;;;;;17.71;58.24;97663.13;4923635;29;20043;-64
2023/06/27 05:44:30;;;;;;;6.75;1.67;;;;;;;17.84;56.87;97667.06;4919073;29;20095;-64
2023/06/27 05:46:57;;;;;;;6.85;1.70;;;;;;;17.86;56.62;97673.06;4917454;29;20264;-64
2023/06/27 05:49:23;;;;;;;8.43;1.33;;;;;;;18.12;56.19;97682.91;4916969;29;20047;-64
2023/06/27 05:51:50;;;;;;;4.32;1.10;;;;;;;18.27;55.61;97679.16;4923887;29;20230;-64
2023/06/27 05:54:16;;;;;;;5.82;1.60;;;;;;;18.28;55.49;97676.13;4924319;29;20122;-64
2023/06/27 05:56:43;;;;;;;5.35;1.45;;;;;;;18.30;55.46;97675.81;4919119;29;20050;-58
2023/06/27 05:59:09;;;;;;;4.20;1.30;;;;;;;18.19;55.87;97672.41;4924072;29;20051;-59
2023/06/27 06:01:37;;;;;;;3.38;1.35;;;;;;;18.14;56.87;97670.53;4916502;29;20056;-58
2023/06/27 06:04:04;;;;;;;2.80;1.20;;;;;;;18.37;56.25;97673.53;4918808;29;20454;-59
2023/06/27 06:06:33;;;;;;;4.10;1.40;;;;;;;18.46;55.86;97665.44;4917007;29;20539;-58
2023/06/27 06:09:00;;;;;;;3.80;1.42;;;;;;;18.42;54.38;97672.63;4924169;29;20062;-59
2023/06/27 06:11:27;;;;;;;4.25;1.58;;;;;;;18.11;54.79;97684.03;4915290;29;20107;-58
2023/06/27 06:13:53;;;;;;;2.55;1.25;;;;;;;18.10;55.65;97685.16;4928580;28;20107;-59
2023/06/27 06:16:20;;;;;;;5.00;1.30;;;;;;;18.05;55.14;97669.53;4922174;29;20054;-59
2023/06/27 06:18:46;;;;;;;2.72;1.30;;;;;;;18.17;54.82;97671.91;4917223;29;20511;-59
2023/06/27 06:21:13;;;;;;;4.03;1.88;;;;;;;17.94;54.67;97674.34;4918588;28;20259;-58
2023/06/27 06:23:40;;;;;;;5.93;1.33;;;;;;;18.02;54.32;97670.16;4917881;29;20044;-58
2023/06/27 06:26:07;;;;;;;4.38;1.35;;;;;;;17.90;55.60;97671.38;4920341;28;20051;-59
2023/06/27 06:28:33;;;;;;;4.28;1.65;;;;;;;18.02;54.91;97676.44;4920478;29;20040;-58
2023/06/27 06:31:00;;;;;;;4.70;1.80;;;;;;;18.05;54.58;97672.28;4919068;29;20055;-58
2023/06/27 06:33:27;;;;;;;5.78;1.40;;;;;;;17.92;54.58;97668.34;4918401;29;20043;-58
2023/06/27 06:35:54;;;;;;;3.33;1.30;;;;;;;18.06;54.22;97687.63;4923034;29;20066;-58
2023/06/27 06:38:20;;;;;;;4.47;1.58;;;;;;;18.20;54.69;97680.34;4921949;29;20043;-58
2023/06/27 06:40:47;;;;;;;3.88;1.65;;;;;;;18.10;54.40;97680.50;4923013;29;20333;-58
2023/06/27 06:43:14;;;;;;;5.68;1.40;;;;;;;18.07;54.66;97681.03;4920728;29;20039;-57
2023/06/27 06:45:40;;;;;;;5.20;1.17;;;;;;;18.17;54.13;97674.66;4923974;29;20578;-57
2023/06/27 06:48:07;;;;;;;7.05;1.58;;;;;;;18.11;54.82;97676.63;4921129;29;20040;-57
2023/06/27 06:50:34;;;;;;;3.78;1.45;;;;;;;18.28;54.10;97680.81;4927353;29;20392;-56
2023/06/27 06:53:01;;;;;;;5.05;1.42;;;;;;;18.41;51.98;97681.97;4926185;29;20055;-57
2023/06/27 06:55:27;;;;;;;4.38;1.35;;;;;;;18.59;51.89;97683.94;4916550;29;20111;-58
2023/06/27 06:57:54;;;;;;;4.43;1.27;;;;;;;18.64;51.64;97682.22;4925310;29;20052;-59
2023/06/27 07:00:20;;;;;;;4.15;1.25;;;;;;;18.64;51.23;97693.19;4920124;29;20082;-58
2023/06/27 07:02:47;;;;;;;3.40;1.20;;;;;;;18.68;51.78;97694.19;4923325;29;20074;-58
2023/06/27 07:05:14;;;;;;;3.22;1.27;;;;;;;18.69;50.01;97691.16;4920556;29;20051;-58
2023/06/27 07:07:40;;;;;;;4.20;1.25;;;;;;;18.92;50.32;97690.53;4918087;29;20512;-58
2023/06/27 07:10:07;;;;;;;4.00;1.30;;;;;;;19.04;49.62;97692.81;4930153;29;20466;-58
2023/06/27 07:12:34;;;;;;;4.60;1.10;;;;;;;19.03;49.06;97691.19;4929620;29;20118;-57
2023/06/27 07:15:00;;;;;;;4.22;1.30;;;;;;;19.12;49.16;97691.38;4922865;29;20055;-58
2023/06/27 07:17:27;;;;;;;4.10;1.20;;;;;;;19.22;47.66;97689.25;4922918;29;20156;-58
2023/06/27 07:19:54;;;;;;;4.13;1.25;;;;;;;19.29;47.66;97685.28;4919594;29;20060;-59
2023/06/27 07:22:21;;;;;;;4.90;1.35;;;;;;;19.38;47.21;97690.91;4920800;29;20047;-58
2023/06/27 07:24:47;;;;;;;4.20;1.20;;;;;;;19.32;47.17;97688.25;4925377;29;20189;-58
2023/06/27 07:27:14;;;;;;;3.30;0.98;;;;;;;19.28;47.08;97683.66;4925998;29;20095;-58
2023/06/27 07:29:40;;;;;;;4.95;1.48;;;;;;;19.38;46.76;97685.44;4920599;29;20047;-58
2023/06/27 07:32:10;;;;;;;3.92;1.20;;;;;;;19.27;46.19;97685.59;4923369;29;20515;-58
2023/06/27 07:34:36;;;;;;;6.22;1.60;;;;;;;19.26;46.50;97686.72;4921596;29;20040;-58
2023/06/27 07:37:03;;;;;;;3.75;1.40;;;;;;;19.28;47.50;97684.50;4918344;29;20053;-59
2023/06/27 07:39:30;;;;;;;3.85;1.48;;;;;;;19.30;48.57;97687.75;4922592;29;20538;-58
2023/06/27 07:41:56;;;;;;;4.55;1.45;;;;;;;19.35;46.82;97690.38;4924178;29;20056;-57
2023/06/27 07:44:24;;;;;;;5.70;1.92;;;;;;;19.57;47.51;97686.16;4914965;29;20078;-58
2023/06/27 07:46:51;;;;;;;4.45;1.40;;;;;;;19.56;47.78;97692.75;4916734;29;20060;-58
2023/06/27 07:49:17;;;;;;;4.25;1.50;;;;;;;19.84;46.74;97694.72;4916746;29;20209;-58
2023/06/27 07:51:49;;;;;;;3.70;1.40;;;;;;;19.87;47.44;97700.41;4920239;29;20519;-56
2023/06/27 07:54:15;;;;;;;5.20;1.27;;;;;;;19.85;46.34;97702.66;4925079;29;20046;-56
2023/06/27 07:56:42;;;;;;;5.18;2.08;;;;;;;19.93;46.47;97698.38;4925975;29;20111;-54
2023/06/27 07:59:11;;;;;;;4.75;1.60;;;;;;;19.85;46.65;97701.84;4920721;29;20102;-58
2023/06/27 08:01:40;;;;;;;3.55;1.30;;;;;;;19.79;46.16;97692.06;4918740;29;20036;-58
2023/06/27 08:04:06;;;;;;;3.97;1.33;;;;;;;19.82;46.66;97689.53;4917261;29;20043;-57
2023/06/27 08:06:33;;;;;;;3.78;1.20;;;;;;;19.86;46.12;97682.31;4920342;29;20161;-58
2023/06/27 08:09:00;;;;;;;4.70;1.40;;;;;;;19.94;46.02;97682.72;4926326;29;20508;-58
2023/06/27 08:11:27;;;;;;;3.60;1.35;;;;;;;20.10;45.44;97678.56;4924508;29;20048;-58
2023/06/27 08:13:54;;;;;;;3.75;1.40;;;;;;;20.33;45.17;97681.34;4921579;29;20048;-58
2023/06/27 08:16:20;;;;;;;2.42;1.23;;;;;;;20.51;44.56;97684.25;4917045;29;20052;-58
2023/06/27 08:18:47;;;;;;;7.43;2.10;;;;;;;20.22;44.91;97680.78;4916913;29;20099;-58
2023/06/27 08:21:14;;;;;;;5.68;1.63;;;;;;;19.99;45.58;97674.38;4920404;29;20780;-58
2023/06/27 08:23:40;;;;;;;5.93;1.70;;;;;;;19.82;45.54;97678.53;4920216;29;20051;-58
2023/06/27 08:26:14;;;;;;;5.10;1.23;;;;;;;19.89;46.32;97669.88;4921369;29;20047;-58
2023/06/27 08:28:41;;;;;;;5.55;1.40;;;;;;;19.46;46.65;97662.75;4924397;29;20604;-58
2023/06/27 08:31:08;;;;;;;5.28;1.73;;;;;;;19.14;47.82;97653.44;4922802;29;20605;-58
2023/06/27 08:33:34;;;;;;;4.78;1.40;;;;;;;19.53;47.05;97659.63;4923674;29;20078;-58
2023/06/27 08:36:01;;;;;;;2.92;1.10;;;;;;;19.81;46.63;97665.09;4921825;29;20051;-58
2023/06/27 08:38:27;;;;;;;4.18;1.40;;;;;;;20.11;45.78;97660.94;4925392;29;20048;-58
2023/06/27 08:40:55;;;;;;;2.90;1.20;;;;;;;20.31;45.53;97653.34;4925338;29;20063;-58
2023/06/27 08:43:22;;;;;;;3.60;1.30;;;;;;;20.49;45.10;97657.06;4925149;29;20058;-59
2023/06/27 08:45:52;;;;;;;4.80;1.30;;;;;;;20.60;44.70;97654.09;4919262;29;20134;-58
2023/06/27 08:48:19;;;;;;;4.25;1.33;;;;;;;20.72;44.29;97653.53;4923487;29;20051;-56
2023/06/27 08:50:51;;;;;;;2.92;1.45;;;;;;;20.46;44.37;97649.47;4920682;29;20822;-57
2023/06/27 08:53:20;;;;;;;4.07;1.33;;;;;;;20.56;44.46;97653.09;4923657;29;20067;-58
2023/06/27 08:56:05;;;;;;;5.20;1.40;;;;;;;20.45;44.50;97652.50;4923299;29;20106;-57
2023/06/27 08:58:40;;;;;;;3.83;1.27;;;;;;;20.64;44.10;97653.13;4919936;29;20048;-56
2023/06/27 09:01:08;;;;;;;5.05;1.65;;;;;;;20.53;43.35;97646.28;4914592;29;20044;-55
2023/06/27 09:03:35;;;;;;;3.83;1.25;;;;;;;20.61;44.09;97640.03;4917765;29;20066;-58
2023/06/27 09:06:07;;;;;;;4.65;1.02;;;;;;;20.59;43.39;97644.19;4917994;29;20054;-57
2023/06/27 09:08:35;;;;;;;2.83;1.10;;;;;;;20.56;42.87;97645.63;4916236;29;20054;-58
2023/06/27 09:11:04;;;;;;;4.35;1.40;;;;;;;20.61;43.08;97633.72;4919432;29;20135;-57
2023/06/27 09:13:30;;;;;;;4.43;1.27;;;;;;;20.73;42.63;97642.22;4919310;29;20046;-58
2023/06/27 09:15:57;;;;;;;4.10;1.77;;;;;;;20.69;43.42;97637.63;4918435;29;20616;-58
2023/06/27 09:18:23;;;;;;;6.75;1.70;;;;;;;20.85;43.36;97646.31;4912772;29;20040;-56
2023/06/27 09:20:54;;;;;;;4.40;1.30;;;;;;;20.92;42.93;97633.78;4917781;29;20080;-58
2023/06/27 09:23:20;;;;;;;5.43;1.20;;;;;;;21.03;42.13;97637.09;4919826;29;20513;-57
2023/06/27 09:26:05;;;;;;;2.95;1.35;;;;;;;21.20;41.72;97634.75;4919589;29;20040;-58
2023/06/27 09:28:34;;;;;;;4.38;1.30;;;;;;;21.29;41.09;97641.13;4916417;29;20052;-58
2023/06/27 09:31:01;;;;;;;5.10;1.65;;;;;;;21.30;41.49;97637.25;4918538;29;20088;-57
2023/06/27 09:33:28;;;;;;;2.60;1.13;;;;;;;21.13;41.73;97630.53;4924103;29;20078;-57
2023/06/27 09:35:54;;;;;;;3.08;1.13;;;;;;;21.16;41.69;97629.88;4922286;29;20044;-58
2023/06/27 09:38:23;;;;;;;3.42;1.17;;;;;;;21.51;41.44;97633.91;4919934;29;20040;-58
2023/06/27 09:41:02;;;;;;;5.45;1.35;;;;;;;21.55;40.89;97632.97;4915606;29;20058;-57
2023/06/27 09:43:32;;;;;;;3.42;1.38;;;;;;;21.43;41.29;97635.50;4918231;29;20048;-58
2023/06/27 09:45:59;;;;;;;7.25;1.52;;;;;;;21.64;40.75;97640.47;4920309;29;20051;-58
2023/06/27 09:48:28;;;;;;;5.25;1.33;;;;;;;21.39;41.45;97626.25;4914506;29;20271;-57
2023/06/27 09:51:03;;;;;;;7.25;1.33;;;;;;;21.71;41.03;97632.56;4915289;29;20120;-56
2023/06/27 09:53:31;;;;;;;4.78;1.60;;;;;;;21.88;40.22;97629.06;4913512;29;20524;-56
2023/06/27 09:56:00;;;;;;;7.30;1.88;;;;;;;21.86;40.29;97628.56;4924676;29;20570;-57
2023/06/27 09:58:29;;;;;;;3.85;1.45;;;;;;;22.02;40.17;97625.34;4918524;29;20047;-57
2023/06/27 10:01:05;;;;;;;5.35;1.30;;;;;;;22.05;40.58;97628.28;4921360;29;20376;-57
2023/06/27 10:03:36;;;;;;;5.38;1.80;;;;;;;22.14;40.03;97638.50;4919697;29;20130;-57
2023/06/27 10:06:03;;;;;;;3.85;1.50;;;;;;;22.13;40.63;97645.97;4921798;29;20040;-57
2023/06/27 10:08:50;;;;;;;6.45;1.50;;;;;;;21.94;41.14;97638.81;4917241;29;20048;-58
2023/06/27 10:11:16;;;;;;;4.95;1.33;;;;;;;21.99;40.42;97643.34;4919551;29;20044;-58
2023/06/27 10:13:43;;;;;;;3.85;1.60;;;;;;;21.94;40.83;97635.22;4923207;29;20059;-58
2023/06/27 10:16:10;;;;;;;4.47;1.33;;;;;;;22.14;40.78;97631.03;4921635;28;20067;-58
2023/06/27 10:18:36;;;;;;;5.10;1.40;;;;;;;21.71;41.89;97627.03;4919468;29;20032;-57
2023/06/27 10:21:03;;;;;;;4.93;1.48;;;;;;;21.30;41.73;97629.00;4925578;29;20043;-58
2023/06/27 10:23:31;;;;;;;4.30;1.45;;;;;;;21.87;40.74;97643.16;4922554;29;20044;-57
2023/06/27 10:25:59;;;;;;;4.25;1.42;;;;;;;21.82;41.11;97636.66;4924505;29;20063;-58
2023/06/27 10:28:29;;;;;;;4.18;1.40;;;;;;;21.94;40.62;97632.47;4918790;29;20057;-57
2023/06/27 10:30:56;;;;;;;4.72;1.30;;;;;;;22.11;40.90;97637.19;4919038;29;20577;-58
2023/06/27 10:33:31;;;;;;;5.25;1.75;;;;;;;21.67;41.28;97637.06;4924321;29;20075;-58
2023/06/27 10:36:05;;;;;;;5.40;1.80;;;;;;;21.88;40.41;97634.56;4930095;29;20463;-58
2023/06/27 10:38:36;;;;;;;7.75;2.10;;;;;;;22.17;40.53;97632.34;4920982;29;20056;-58
2023/06/27 10:41:11;;;;;;;4.57;1.40;;;;;;;22.42;40.33;97640.97;4933988;29;20434;-58
2023/06/27 10:43:49;;;;;;;8.80;1.90;;;;;;;22.56;39.75;97632.56;4920063;29;20052;-58
2023/06/27 10:46:23;;;;;;;6.88;1.80;;;;;;;21.83;41.66;97640.22;4923929;29;20518;-58
2023/06/27 10:49:01;;;;;;;3.67;1.35;;;;;;;21.88;40.74;97633.75;4928475;29;20107;-57
2023/06/27 10:51:37;;;;;;;5.43;1.55;;;;;;;22.19;40.62;97636.41;4918148;29;20204;-57
2023/06/27 10:54:07;;;;;;;5.10;1.63;;;;;;;22.37;40.03;97638.38;4924214;29;20139;-58
2023/06/27 10:56:38;;;;;;;3.88;1.27;;;;;;;22.34;40.12;97634.31;4920820;29;20430;-57
2023/06/27 10:59:09;;;;;;;6.30;1.70;;;;;;;22.48;39.99;97646.00;4945009;28;20055;-56
2023/06/27 11:01:40;;;;;;;7.20;1.60;;;;;;;22.36;39.91;97648.59;4916623;29;20040;-56
2023/06/27 11:04:20;;;;;;;5.15;2.40;;;;;;;22.27;39.94;97648.59;4926615;28;20058;-55
2023/06/27 11:06:48;;;;;;;6.78;1.58;;;;;;;22.12;40.89;97643.53;4924502;29;20043;-56
2023/06/27 11:09:16;;;;;;;7.20;1.63;;;;;;;22.08;40.69;97635.09;4922276;29;20044;-55
2023/06/27 11:11:54;;;;;;;6.50;1.50;;;;;;;22.14;41.05;97641.25;4926914;29;20074;-57
2023/06/27 11:14:40;;;;;;;7.32;1.40;;;;;;;22.21;40.45;97638.84;4922274;29;20039;-58
2023/06/27 11:17:07;;;;;;;3.15;1.33;;;;;;;22.01;42.06;97643.03;4920401;29;20048;-57
2023/06/27 11:19:35;;;;;;;5.55;1.50;;;;;;;21.92;42.17;97646.56;4929044;29;20524;-58
2023/06/27 11:22:02;;;;;;;6.20;1.70;;;;;;;22.12;41.58;97646.28;4927606;28;20051;-58
2023/06/27 11:24:29;;;;;;;5.18;1.33;;;;;;;22.22;41.14;97649.53;4926003;29;20475;-57
2023/06/27 11:26:57;;;;;;;5.10;2.15;;;;;;;22.10;40.80;97643.84;4923040;29;20056;-57
2023/06/27 11:29:24;;;;;;;4.82;1.58;;;;;;;22.40;40.78;97646.81;4928546;29;20089;-57
2023/06/27 11:31:50;;;;;;;3.38;1.30;;;;;;;22.48;40.59;97640.47;4929516;29;20427;-58
2023/06/27 11:34:17;;;;;;;4.32;1.30;;;;;;;22.81;40.22;97632.88;4932614;29;20502;-58
2023/06/27 11:36:44;;;;;;;5.13;1.92;;;;;;;23.08;39.13;97644.69;4923785;29;20055;-58
2023/06/27 11:39:15;;;;;;;6.40;1.65;;;;;;;23.15;38.70;97639.47;4918680;28;20071;-58